Time;durP1;ratioP1;P1;durP2;ratioP2;P2;SDS_P1;SDS_P2;PMS_P1;PMS_P2;Temp;Humidity;BMP_temperature;BMP_pressure;BME280_temperature;BME280_humidity;BME280_pressure;Samples;Min_cycle;Max_cycle;Signal;HPM_P1;HPM_P2
2021/09/18 00:00:01;;;;;;;1.20;0.90;;;19.10;99.90;;;;;;5093124;28;20025;-80
2021/09/18 00:02:35;;;;;;;1.38;1.27;;;19.10;99.90;;;;;;5098493;28;20084;-80
2021/09/18 00:05:07;;;;;;;1.20;1.10;;;19.10;99.90;;;;;;5093561;28;20063;-80
2021/09/18 00:10:40;;;;;;;2.22;1.27;;;19.10;99.90;;;;;;5081019;28;20035;-80
2021/09/18 00:13:15;;;;;;;3.63;0.82;;;19.00;99.90;;;;;;5089665;28;20060;-80
2021/09/18 00:16:04;;;;;;;2.28;1.45;;;19.00;99.90;;;;;;5093171;28;20489;-80
2021/09/18 00:19:01;;;;;;;2.72;0.98;;;19.00;99.90;;;;;;5072193;28;20092;-79
2021/09/18 00:22:40;;;;;;;3.28;1.40;;;19.00;99.90;;;;;;5075937;28;20072;-80
2021/09/18 00:25:33;;;;;;;1.35;1.00;;;19.00;99.90;;;;;;5015285;28;20041;-80
2021/09/18 00:28:16;;;;;;;1.88;1.77;;;19.00;99.90;;;;;;5028076;28;20141;-80
2021/09/18 00:34:00;;;;;;;1.70;1.10;;;18.90;99.90;;;;;;5071368;28;20085;-80
2021/09/18 00:40:19;;;;;;;3.75;1.08;;;18.90;99.90;;;;;;5055136;28;20040;-80
2021/09/18 00:46:32;;;;;;;3.83;1.38;;;18.90;99.90;;;;;;5071167;28;20090;-80
2021/09/18 00:49:26;;;;;;;;;;;;;;;;;;;;;
2021/09/18 00:52:17;;;;;;;;;;;;;;;;;;;;;
2021/09/18 00:55:00;;;;;;;3.72;1.48;;;18.80;99.90;;;;;;5067724;28;20158;-80
2021/09/18 00:57:32;;;;;;;2.00;1.25;;;18.70;99.90;;;;;;5069682;28;20021;-80
2021/09/18 01:00:09;;;;;;;1.40;1.08;;;18.70;99.90;;;;;;5069374;28;20029;-80
2021/09/18 01:02:38;;;;;;;3.10;1.40;;;18.70;99.90;;;;;;5070143;28;20530;-80
2021/09/18 01:05:13;;;;;;;1.95;1.00;;;18.70;99.90;;;;;;5069019;28;20032;-80
2021/09/18 01:07:56;;;;;;;6.82;1.38;;;18.70;99.90;;;;;;5069038;28;20040;-80
2021/09/18 01:10:25;;;;;;;1.02;1.00;;;18.60;99.90;;;;;;5068478;28;20052;-80
2021/09/18 01:13:03;;;;;;;1.42;1.33;;;18.60;99.90;;;;;;5080415;28;20051;-80
2021/09/18 01:15:33;;;;;;;1.65;1.35;;;18.60;99.90;;;;;;5084448;28;20021;-80
2021/09/18 01:18:25;;;;;;;2.05;1.08;;;18.70;99.90;;;;;;5066531;28;20033;-81
2021/09/18 01:21:00;;;;;;;;;;;18.60;99.90;;;;;;5067563;28;20021;-81
2021/09/18 01:23:49;;;;;;;7.80;1.63;;;18.70;99.90;;;;;;5046388;28;19978;-80
2021/09/18 01:32:55;;;;;;;;;;;;;;;;;;;;;
2021/09/18 01:38:36;;;;;;;0.90;0.90;;;18.50;99.90;;;;;;5078923;28;20481;-80
2021/09/18 01:41:13;;;;;;;2.53;1.40;;;18.60;99.90;;;;;;5084149;28;20043;-80
2021/09/18 01:43:50;;;;;;;3.83;1.52;;;18.60;99.90;;;;;;5082518;28;20282;-80
2021/09/18 01:46:19;;;;;;;2.42;1.38;;;18.60;99.90;;;;;;5066446;28;20049;-80
2021/09/18 01:49:37;;;;;;;2.03;1.92;;;18.60;99.90;;;;;;5067207;28;20110;-80
2021/09/18 01:55:14;;;;;;;1.58;1.10;;;18.60;99.90;;;;;;5054332;28;20041;-80
2021/09/18 01:57:51;;;;;;;1.85;1.75;;;18.60;99.90;;;;;;5068450;28;20025;-80
2021/09/18 02:00:38;;;;;;;1.60;1.50;;;18.60;99.90;;;;;;5068737;28;20060;-81
2021/09/18 02:03:07;;;;;;;1.52;1.42;;;18.60;99.90;;;;;;5050071;28;20029;-80
2021/09/18 02:06:05;;;;;;;4.28;1.52;;;18.60;99.90;;;;;;5067839;28;20025;-80
2021/09/18 02:08:44;;;;;;;2.22;1.98;;;18.50;99.90;;;;;;5065826;28;20041;-80
2021/09/18 02:11:11;;;;;;;1.30;1.20;;;18.50;99.90;;;;;;5076078;28;20202;-80
2021/09/18 02:13:37;;;;;;;1.63;1.17;;;18.50;99.90;;;;;;5088096;28;20052;-80
2021/09/18 02:16:08;;;;;;;16.48;2.58;;;18.50;99.90;;;;;;5086445;28;20043;-80
2021/09/18 02:18:40;;;;;;;;;;;18.30;99.90;;;;;;5088243;28;20077;-80
2021/09/18 02:21:06;;;;;;;4.15;1.95;;;18.30;99.90;;;;;;5088161;28;19923;-80
2021/09/18 02:26:44;;;;;;;;;;;18.10;99.90;;;;;;5009270;28;20036;-81
2021/09/18 02:29:11;;;;;;;4.57;1.45;;;18.20;99.90;;;;;;5073695;28;20390;-81
2021/09/18 02:32:04;;;;;;;1.52;1.40;;;18.10;99.90;;;;;;5085651;28;20051;-80
2021/09/18 02:38:19;;;;;;;2.40;2.20;;;18.10;99.90;;;;;;5079846;28;20032;-80
2021/09/18 02:41:32;;;;;;;3.25;1.17;;;18.10;99.90;;;;;;5011327;28;20089;-81
2021/09/18 02:44:39;;;;;;;2.53;1.48;;;18.00;99.90;;;;;;5004976;28;20044;-80
2021/09/18 02:47:11;;;;;;;2.67;2.47;;;18.00;99.90;;;;;;5087574;28;20032;-81
2021/09/18 02:49:52;;;;;;;1.30;1.20;;;18.00;99.90;;;;;;5086704;28;20021;-80
2021/09/18 02:52:19;;;;;;;4.20;1.95;;;18.00;99.90;;;;;;5073441;28;20030;-80
2021/09/18 02:54:50;;;;;;;2.63;1.63;;;18.00;99.90;;;;;;5076222;28;20025;-80
2021/09/18 02:57:23;;;;;;;1.52;1.42;;;18.00;99.90;;;;;;5070992;28;20078;-81
2021/09/18 02:59:54;;;;;;;1.75;1.40;;;18.00;99.90;;;;;;5069399;28;20493;-80
2021/09/18 03:02:52;;;;;;;1.70;1.38;;;18.00;99.90;;;;;;5068396;28;20056;-80
2021/09/18 03:05:50;;;;;;;1.75;1.45;;;18.00;99.90;;;;;;5087261;28;20016;-80
2021/09/18 03:08:49;;;;;;;2.10;1.67;;;18.00;99.90;;;;;;5054480;28;20041;-80
2021/09/18 03:11:59;;;;;;;1.73;1.48;;;18.00;99.90;;;;;;5067325;28;20112;-80
2021/09/18 03:21:44;;;;;;;1.90;1.67;;;17.90;99.90;;;;;;4972752;28;20387;-80
2021/09/18 03:24:13;;;;;;;5.38;2.10;;;17.90;99.90;;;;;;4956074;28;20398;-80
2021/09/18 03:26:56;;;;;;;2.65;1.77;;;17.90;99.90;;;;;;5013885;28;20034;-81
2021/09/18 03:29:34;;;;;;;2.38;1.52;;;17.90;99.90;;;;;;5005582;28;20030;-81
2021/09/18 03:32:37;;;;;;;4.65;2.00;;;17.90;99.90;;;;;;5021477;28;20029;-80
2021/09/18 03:35:20;;;;;;;2.33;1.63;;;17.90;99.90;;;;;;5025187;28;20157;-80
2021/09/18 03:37:51;;;;;;;2.80;1.40;;;17.90;99.90;;;;;;5069728;28;20032;-80
2021/09/18 03:40:17;;;;;;;2.37;1.47;;;17.80;99.90;;;;;;5075148;28;20060;-80
2021/09/18 03:42:52;;;;;;;2.72;1.52;;;17.80;99.90;;;;;;5077538;28;20042;-80
2021/09/18 03:45:21;;;;;;;2.33;1.63;;;17.80;99.90;;;;;;5087041;28;20141;-80
2021/09/18 03:47:53;;;;;;;2.28;1.73;;;17.80;99.90;;;;;;5087330;28;20032;-80
2021/09/18 03:51:14;;;;;;;1.60;1.20;;;17.80;99.90;;;;;;5069911;28;20048;-80
2021/09/18 03:53:45;;;;;;;2.20;2.00;;;17.90;99.90;;;;;;5063280;28;20036;-81
2021/09/18 03:56:19;;;;;;;5.38;2.67;;;17.90;99.90;;;;;;5066812;28;20029;-80
2021/09/18 03:58:45;;;;;;;3.13;2.13;;;17.90;99.90;;;;;;5066084;28;20021;-80
2021/09/18 04:01:38;;;;;;;3.90;1.50;;;17.90;99.90;;;;;;5070526;28;20159;-80
2021/09/18 04:04:05;;;;;;;1.70;1.60;;;17.90;99.90;;;;;;5066749;28;20021;-80
2021/09/18 04:06:54;;;;;;;3.80;1.95;;;18.00;99.90;;;;;;5065685;28;20037;-81
2021/09/18 04:10:13;;;;;;;;;;;;;;;;;;;;;
2021/09/18 04:13:26;;;;;;;1.63;1.38;;;18.00;99.90;;;;;;4952268;29;20115;-81
2021/09/18 04:16:10;;;;;;;3.72;2.05;;;18.10;99.90;;;;;;4975852;28;20034;-80
2021/09/18 04:18:50;;;;;;;2.30;1.63;;;18.10;99.90;;;;;;5021630;28;20038;-81
2021/09/18 04:21:21;;;;;;;2.58;1.67;;;18.10;99.90;;;;;;5026792;28;20026;-80
2021/09/18 04:23:50;;;;;;;2.33;1.83;;;18.20;99.90;;;;;;5053247;28;20067;-80
2021/09/18 04:26:16;;;;;;;2.53;2.33;;;18.30;99.90;;;;;;5070387;28;20068;-80
2021/09/18 04:28:57;;;;;;;2.42;1.52;;;18.30;99.90;;;;;;5088563;28;20021;-80
2021/09/18 04:31:26;;;;;;;1.83;1.70;;;18.20;99.90;;;;;;5082444;28;20467;-81
2021/09/18 04:34:03;;;;;;;1.95;1.65;;;18.30;99.90;;;;;;5086284;28;20066;-80
2021/09/18 04:36:43;;;;;;;5.05;1.92;;;18.30;99.90;;;;;;5081330;28;20025;-80
2021/09/18 04:39:24;;;;;;;;;;;;;;;;;;;;;
2021/09/18 04:41:55;;;;;;;2.08;1.05;;;18.30;99.90;;;;;;5068795;28;20067;-81
2021/09/18 04:44:24;;;;;;;2.40;2.20;;;18.30;99.90;;;;;;5099515;28;20085;-81
2021/09/18 04:47:21;;;;;;;1.65;1.55;;;18.30;99.90;;;;;;5101943;28;20104;-80
2021/09/18 04:50:13;;;;;;;1.77;1.67;;;18.20;99.90;;;;;;5058632;28;20052;-80
2021/09/18 04:52:45;;;;;;;;;;;18.20;99.90;;;;;;5067582;28;20052;-80
2021/09/18 04:55:20;;;;;;;5.38;1.90;;;18.20;99.90;;;;;;5026351;28;19909;-81
2021/09/18 04:57:55;;;;;;;2.42;2.25;;;18.20;99.90;;;;;;5039652;28;20037;-80
2021/09/18 05:00:24;;;;;;;1.75;1.58;;;18.10;99.90;;;;;;5069610;28;20033;-81
2021/09/18 05:03:34;;;;;;;1.70;1.60;;;18.00;99.90;;;;;;5069277;28;20080;-81
2021/09/18 05:06:16;;;;;;;2.05;1.88;;;18.00;99.90;;;;;;5056612;28;20039;-80
2021/09/18 05:08:43;;;;;;;6.60;1.98;;;18.00;99.90;;;;;;5075139;28;20028;-80
2021/09/18 05:14:12;;;;;;;3.67;2.15;;;18.00;99.90;;;;;;5087628;28;20036;-80
2021/09/18 05:16:38;;;;;;;7.10;1.83;;;18.00;99.90;;;;;;5084309;28;20033;-80
2021/09/18 05:19:13;;;;;;;1.90;1.80;;;18.10;99.90;;;;;;5080597;28;20321;-82
2021/09/18 05:25:05;;;;;;;1.52;1.40;;;18.00;99.90;;;;;;5068991;28;20158;-80
2021/09/18 05:27:33;;;;;;;3.75;1.70;;;18.10;99.90;;;;;;5070349;28;20029;-81
2021/09/18 05:30:49;;;;;;;3.00;2.00;;;18.10;99.90;;;;;;5082984;28;20395;-80
2021/09/18 05:33:18;;;;;;;;;;;;;;;;;;;;;
2021/09/18 05:35:47;;;;;;;1.88;1.63;;;18.20;99.90;;;;;;5073691;28;20040;-81
2021/09/18 05:38:43;;;;;;;2.00;1.85;;;18.10;99.90;;;;;;5069286;28;20109;-81
2021/09/18 05:41:52;;;;;;;3.33;1.95;;;18.20;99.90;;;;;;5081278;28;20024;-80
2021/09/18 05:44:40;;;;;;;6.35;1.90;;;18.20;99.90;;;;;;5091980;28;20024;-80
2021/09/18 05:47:09;;;;;;;1.83;1.70;;;18.20;99.90;;;;;;5070821;28;20033;-81
2021/09/18 05:53:12;;;;;;;;;;;;;;;;;;;;;
2021/09/18 05:55:38;;;;;;;1.83;1.73;;;18.30;99.90;;;;;;5086697;28;20491;-78
2021/09/18 05:58:04;;;;;;;2.13;1.85;;;18.40;99.90;;;;;;5075957;28;20054;-77
2021/09/18 06:00:30;;;;;;;8.27;2.10;;;18.30;99.90;;;;;;5065369;28;20024;-77
2021/09/18 06:02:56;;;;;;;2.10;2.00;;;18.30;99.90;;;;;;5064673;28;20082;-78
2021/09/18 06:05:22;;;;;;;1.92;1.80;;;18.40;99.90;;;;;;5075848;28;20020;-78
2021/09/18 06:07:47;;;;;;;2.17;2.00;;;18.40;99.90;;;;;;5068574;28;20064;-77
2021/09/18 06:10:14;;;;;;;4.20;1.95;;;18.50;99.90;;;;;;5054978;28;20032;-78
2021/09/18 06:12:39;;;;;;;2.35;1.98;;;18.40;99.90;;;;;;5057741;28;20036;-78
2021/09/18 06:15:06;;;;;;;2.05;1.88;;;18.40;99.90;;;;;;5079834;28;20026;-78
2021/09/18 06:17:32;;;;;;;3.42;1.95;;;18.50;99.90;;;;;;5056955;28;20461;-78
2021/09/18 06:19:57;;;;;;;1.95;1.83;;;18.50;99.90;;;;;;5077709;28;20044;-78
2021/09/18 06:22:23;;;;;;;1.92;1.67;;;18.50;99.90;;;;;;5083736;28;20231;-77
2021/09/18 06:24:49;;;;;;;2.85;2.58;;;18.60;99.90;;;;;;5076559;28;20075;-78
2021/09/18 06:27:15;;;;;;;2.03;1.83;;;18.60;99.90;;;;;;5076127;28;20055;-77
2021/09/18 06:29:41;;;;;;;1.83;1.73;;;18.60;99.90;;;;;;5074437;28;20143;-77
2021/09/18 06:32:07;;;;;;;5.03;1.60;;;18.70;99.90;;;;;;5059294;28;20028;-78
2021/09/18 06:34:37;;;;;;;4.35;1.85;;;18.70;99.90;;;;;;5077769;28;20150;-78
2021/09/18 06:37:06;;;;;;;5.32;2.17;;;18.80;99.90;;;;;;5078037;28;20044;-77
2021/09/18 06:39:33;;;;;;;3.67;1.95;;;18.80;99.90;;;;;;5078075;28;20032;-77
2021/09/18 06:41:59;;;;;;;7.00;1.92;;;18.80;99.90;;;;;;5041228;28;20021;-78
2021/09/18 06:44:25;;;;;;;2.92;2.00;;;18.90;99.90;;;;;;5065336;28;20032;-77
2021/09/18 06:46:51;;;;;;;3.58;2.17;;;18.90;99.90;;;;;;5080782;28;20046;-77
2021/09/18 06:49:17;;;;;;;4.22;2.00;;;19.00;99.90;;;;;;5076486;28;20510;-78
2021/09/18 06:51:42;;;;;;;5.20;2.15;;;19.00;99.90;;;;;;5090783;28;20063;-77
2021/09/18 06:54:08;;;;;;;1.60;1.50;;;19.10;99.90;;;;;;5076864;28;20115;-77
2021/09/18 06:56:34;;;;;;;5.53;2.50;;;19.20;99.90;;;;;;5084481;28;20028;-79
2021/09/18 06:59:00;;;;;;;5.50;2.17;;;19.20;99.90;;;;;;5075630;28;20016;-78
2021/09/18 07:01:27;;;;;;;5.60;2.28;;;19.20;99.90;;;;;;5073317;28;20028;-78
2021/09/18 07:03:53;;;;;;;6.03;3.08;;;19.20;99.90;;;;;;5047360;28;20027;-78
2021/09/18 07:06:19;;;;;;;3.95;2.63;;;19.30;99.90;;;;;;5061106;28;20033;-78
2021/09/18 07:08:45;;;;;;;2.25;2.00;;;19.40;99.90;;;;;;5078901;28;20020;-77
2021/09/18 07:11:11;;;;;;;4.05;1.98;;;19.40;99.90;;;;;;5066233;28;20020;-77
2021/09/18 07:13:37;;;;;;;1.88;1.63;;;19.50;99.90;;;;;;5082717;28;20028;-80
2021/09/18 07:16:03;;;;;;;6.13;1.95;;;19.70;99.90;;;;;;5075996;28;20036;-78
2021/09/18 07:18:29;;;;;;;2.45;2.17;;;19.80;99.90;;;;;;5074317;28;20039;-78
2021/09/18 07:20:55;;;;;;;2.65;1.95;;;20.00;99.90;;;;;;5076221;28;20013;-78
2021/09/18 07:23:21;;;;;;;2.60;2.40;;;20.00;99.90;;;;;;5061943;28;20037;-78
2021/09/18 07:25:47;;;;;;;1.60;1.50;;;20.20;99.90;;;;;;5060399;28;20025;-78
2021/09/18 07:28:13;;;;;;;2.15;1.92;;;20.20;99.90;;;;;;5064396;28;20032;-78
2021/09/18 07:30:39;;;;;;;2.20;1.98;;;20.30;99.90;;;;;;5094069;28;20024;-79
2021/09/18 07:33:05;;;;;;;1.70;1.58;;;20.20;99.90;;;;;;5078539;28;20025;-78
2021/09/18 07:35:31;;;;;;;5.65;1.90;;;20.20;99.90;;;;;;5077351;28;20062;-79
2021/09/18 07:37:58;;;;;;;2.72;2.28;;;20.20;99.90;;;;;;5059662;28;20028;-79
2021/09/18 07:40:24;;;;;;;5.25;2.33;;;20.20;99.90;;;;;;5069474;28;20025;-78
2021/09/18 07:42:50;;;;;;;2.28;1.85;;;20.30;99.90;;;;;;5065691;28;20044;-80
2021/09/18 07:45:16;;;;;;;1.90;1.75;;;20.40;99.90;;;;;;5070577;28;20255;-81
2021/09/18 07:47:42;;;;;;;2.88;2.05;;;20.50;99.90;;;;;;5061042;28;20028;-81
2021/09/18 07:50:09;;;;;;;3.53;2.25;;;20.40;99.90;;;;;;5083406;28;20024;-81
2021/09/18 07:52:35;;;;;;;4.25;2.38;;;20.30;99.90;;;;;;5068854;28;20028;-80
2021/09/18 07:55:00;;;;;;;4.43;2.38;;;20.30;99.90;;;;;;5065188;28;20074;-79
2021/09/18 07:57:26;;;;;;;14.98;2.67;;;20.50;99.90;;;;;;5060940;28;20094;-79
2021/09/18 07:59:54;;;;;;;2.75;2.20;;;20.70;99.90;;;;;;5059492;28;20192;-79
2021/09/18 08:02:21;;;;;;;14.02;2.75;;;20.70;99.90;;;;;;5057054;28;20486;-78
2021/09/18 08:04:47;;;;;;;13.77;2.25;;;20.50;99.90;;;;;;5038644;28;20029;-79
2021/09/18 08:07:12;;;;;;;4.88;1.80;;;20.60;99.90;;;;;;5046138;28;20075;-78
2021/09/18 08:09:38;;;;;;;1.73;1.63;;;20.80;99.90;;;;;;5066423;28;20040;-80
2021/09/18 08:12:04;;;;;;;2.25;1.80;;;20.90;99.90;;;;;;5076923;28;20025;-78
2021/09/18 08:14:30;;;;;;;1.92;1.80;;;21.00;99.90;;;;;;5076416;28;20029;-78
2021/09/18 08:16:56;;;;;;;2.42;2.22;;;21.20;99.90;;;;;;5067298;28;20034;-78
2021/09/18 08:19:22;;;;;;;3.92;2.35;;;21.30;99.90;;;;;;5069156;28;20021;-78
2021/09/18 08:21:49;;;;;;;2.17;1.98;;;21.40;99.90;;;;;;5063016;28;20067;-79
2021/09/18 08:24:17;;;;;;;1.60;1.50;;;21.50;99.90;;;;;;5055211;28;20116;-77
2021/09/18 08:26:43;;;;;;;2.13;1.92;;;21.50;99.90;;;;;;5053644;28;20025;-78
2021/09/18 08:29:09;;;;;;;2.92;2.08;;;21.50;99.90;;;;;;5053982;28;20291;-78
2021/09/18 08:31:35;;;;;;;2.80;2.22;;;21.70;99.90;;;;;;5055610;28;20033;-78
2021/09/18 08:34:01;;;;;;;3.58;2.28;;;21.60;99.90;;;;;;5055277;28;20025;-77
2021/09/18 08:36:26;;;;;;;6.70;2.92;;;21.70;99.90;;;;;;5058358;28;20145;-80
2021/09/18 08:38:52;;;;;;;2.85;2.13;;;21.80;99.90;;;;;;5057302;28;20032;-78
2021/09/18 08:41:18;;;;;;;3.88;2.05;;;21.80;99.90;;;;;;5075206;28;20418;-78
2021/09/18 08:43:44;;;;;;;4.40;2.03;;;21.80;99.90;;;;;;5078585;28;20032;-78
2021/09/18 08:46:11;;;;;;;2.80;1.83;;;21.90;99.90;;;;;;5086719;28;20028;-78
2021/09/18 08:48:39;;;;;;;4.75;2.38;;;21.90;99.90;;;;;;5056017;28;20036;-78
2021/09/18 08:51:06;;;;;;;3.88;2.22;;;22.00;99.90;;;;;;5055245;28;20054;-78
2021/09/18 08:53:32;;;;;;;3.28;1.65;;;22.10;99.90;;;;;;5056063;28;20067;-78
2021/09/18 08:55:58;;;;;;;3.08;1.65;;;22.10;99.90;;;;;;5055067;28;20032;-78
2021/09/18 08:58:25;;;;;;;4.43;2.20;;;22.20;99.90;;;;;;5058190;28;20029;-78
2021/09/18 09:00:53;;;;;;;2.70;1.95;;;22.20;99.90;;;;;;5058980;28;20025;-78
2021/09/18 09:03:28;;;;;;;2.10;2.00;;;22.40;99.90;;;;;;5058662;28;20040;-78
2021/09/18 09:06:12;;;;;;;2.22;2.00;;;22.50;99.90;;;;;;5059100;28;20391;-78
2021/09/18 09:08:40;;;;;;;1.80;1.70;;;22.60;99.90;;;;;;5067608;28;20464;-79
2021/09/18 09:11:19;;;;;;;5.43;4.85;;;22.70;99.90;;;;;;5066468;28;20033;-78
2021/09/18 09:13:57;;;;;;;2.83;2.22;;;22.70;99.90;;;;;;5075018;28;20035;-77
2021/09/18 09:16:23;;;;;;;4.50;2.83;;;22.70;99.90;;;;;;5053207;28;20025;-78
2021/09/18 09:18:49;;;;;;;6.25;2.58;;;22.70;99.90;;;;;;5078339;28;20021;-78
2021/09/18 09:21:20;;;;;;;3.10;1.65;;;22.70;99.90;;;;;;5060653;28;20086;-78
2021/09/18 09:24:13;;;;;;;4.97;3.15;;;22.90;99.90;;;;;;5078831;28;20024;-78
2021/09/18 09:27:00;;;;;;;2.72;2.35;;;23.00;99.90;;;;;;5077422;28;20028;-78
2021/09/18 09:29:59;;;;;;;2.25;2.05;;;23.20;99.90;;;;;;5059960;28;20392;-78
2021/09/18 09:32:38;;;;;;;3.08;1.77;;;23.20;99.90;;;;;;5077862;28;20040;-78
2021/09/18 09:35:11;;;;;;;2.47;1.95;;;23.30;99.90;;;;;;5077673;28;20028;-78
2021/09/18 09:37:37;;;;;;;1.70;1.60;;;23.40;99.90;;;;;;5066279;28;20151;-78
2021/09/18 09:40:07;;;;;;;3.28;1.88;;;23.40;99.90;;;;;;5058792;28;20025;-78
2021/09/18 09:42:35;;;;;;;4.45;3.28;;;23.50;99.90;;;;;;5058596;28;20049;-78
2021/09/18 09:45:16;;;;;;;4.70;3.92;;;23.60;99.90;;;;;;5074405;28;20039;-78
2021/09/18 09:47:43;;;;;;;5.10;3.22;;;23.70;99.90;;;;;;5077269;28;20024;-78
2021/09/18 09:50:11;;;;;;;2.63;2.40;;;23.90;99.90;;;;;;5079842;28;20020;-78
2021/09/18 09:52:39;;;;;;;2.72;1.73;;;24.10;99.90;;;;;;5079200;28;20106;-78
2021/09/18 09:55:12;;;;;;;9.43;3.22;;;24.20;99.90;;;;;;5060853;28;20034;-78
2021/09/18 09:57:44;;;;;;;5.93;2.38;;;24.40;99.90;;;;;;5067363;28;20386;-78
2021/09/18 10:00:12;;;;;;;3.42;2.22;;;24.60;99.90;;;;;;5073678;28;20074;-78
2021/09/18 10:02:40;;;;;;;5.32;2.13;;;24.60;99.90;;;;;;5060852;28;20039;-79
2021/09/18 10:05:13;;;;;;;4.18;2.45;;;24.60;99.90;;;;;;5078899;28;20026;-78
2021/09/18 10:07:40;;;;;;;7.55;3.45;;;24.40;99.90;;;;;;5078119;28;20024;-78
2021/09/18 10:10:08;;;;;;;6.50;2.47;;;24.60;99.90;;;;;;5064843;28;20025;-78
2021/09/18 10:12:35;;;;;;;2.38;2.20;;;24.80;99.90;;;;;;5060492;28;20382;-78
2021/09/18 10:15:04;;;;;;;2.90;2.03;;;25.10;99.90;;;;;;5078738;28;20025;-78
2021/09/18 10:17:33;;;;;;;5.13;1.40;;;25.10;99.90;;;;;;5079041;28;20023;-78
2021/09/18 10:20:14;;;;;;;5.50;2.15;;;25.10;99.90;;;;;;5065873;28;20165;-78
2021/09/18 10:25:33;;;;;;;3.28;1.88;;;25.10;99.90;;;;;;5059149;28;20028;-78
2021/09/18 10:28:04;;;;;;;2.17;1.98;;;25.10;99.90;;;;;;5039894;28;20025;-80
2021/09/18 10:30:33;;;;;;;2.58;1.58;;;25.00;99.90;;;;;;5058114;28;20114;-78
2021/09/18 10:33:01;;;;;;;2.63;2.05;;;25.00;99.90;;;;;;5058028;28;20025;-78
2021/09/18 10:35:30;;;;;;;3.78;2.10;;;25.10;99.90;;;;;;5058792;28;20045;-78
2021/09/18 10:37:56;;;;;;;2.45;2.25;;;25.10;99.90;;;;;;5039871;28;20028;-78
2021/09/18 10:40:22;;;;;;;4.93;2.40;;;25.00;99.90;;;;;;5059540;28;20032;-78
2021/09/18 10:42:51;;;;;;;6.20;2.38;;;25.00;99.90;;;;;;5057773;28;20031;-79
2021/09/18 10:45:18;;;;;;;5.40;2.55;;;24.80;99.90;;;;;;5063648;28;20021;-78
2021/09/18 10:47:50;;;;;;;2.90;2.70;;;24.70;99.90;;;;;;5056054;28;20032;-78
2021/09/18 10:50:21;;;;;;;2.95;1.98;;;24.80;99.90;;;;;;5060764;28;20146;-79
2021/09/18 10:52:58;;;;;;;;;;;24.60;99.90;;;;;;5036608;28;20442;-78
2021/09/18 10:55:28;;;;;;;4.20;2.17;;;24.50;99.90;;;;;;5053217;28;20381;-78
2021/09/18 10:57:56;;;;;;;3.00;1.65;;;24.40;99.90;;;;;;5038395;28;20519;-78
2021/09/18 11:00:28;;;;;;;9.32;2.50;;;24.20;99.90;;;;;;5060454;28;20513;-79
2021/09/18 11:03:04;;;;;;;2.33;1.73;;;24.40;99.90;;;;;;5080853;28;20024;-79
2021/09/18 11:05:39;;;;;;;3.30;2.80;;;24.30;99.90;;;;;;5064377;28;20029;-78
2021/09/18 11:08:22;;;;;;;12.50;2.97;;;24.20;99.90;;;;;;5080949;28;20024;-78
2021/09/18 11:11:00;;;;;;;4.78;2.30;;;23.90;99.90;;;;;;5062796;28;20037;-78
2021/09/18 11:13:32;;;;;;;5.18;2.08;;;24.00;99.90;;;;;;5058530;28;20044;-78
2021/09/18 11:16:16;;;;;;;5.80;2.72;;;24.00;99.90;;;;;;5076632;28;20088;-78
2021/09/18 11:18:44;;;;;;;5.18;1.88;;;23.70;99.90;;;;;;5079511;28;20021;-78
2021/09/18 11:21:30;;;;;;;5.80;2.40;;;23.80;99.90;;;;;;5056484;28;20502;-78
2021/09/18 11:24:11;;;;;;;11.82;3.95;;;23.90;99.90;;;;;;5060289;28;20032;-78
2021/09/18 11:27:15;;;;;;;2.20;2.00;;;24.10;99.90;;;;;;5039680;28;20078;-78
2021/09/18 11:29:44;;;;;;;5.90;2.28;;;24.20;99.90;;;;;;5069966;28;20578;-79
2021/09/18 11:32:21;;;;;;;3.25;2.40;;;24.40;99.90;;;;;;5076338;28;20527;-78
2021/09/18 11:34:52;;;;;;;4.57;2.35;;;24.50;99.90;;;;;;5077284;28;20036;-79
2021/09/18 11:37:27;;;;;;;6.20;2.28;;;24.60;99.90;;;;;;5076946;28;20104;-79
2021/09/18 11:40:05;;;;;;;6.80;1.77;;;24.70;99.90;;;;;;5058402;28;20036;-78
2021/09/18 11:42:30;;;;;;;2.72;2.30;;;24.70;99.90;;;;;;5063764;28;20067;-78
2021/09/18 11:45:03;;;;;;;1.70;1.60;;;24.80;99.90;;;;;;5067920;28;20071;-78
2021/09/18 11:47:35;;;;;;;2.63;2.17;;;25.00;99.90;;;;;;5079793;28;20044;-79
2021/09/18 11:50:01;;;;;;;;;;;25.10;99.90;;;;;;5050842;28;20093;-79
2021/09/18 11:52:38;;;;;;;3.28;2.35;;;25.10;99.90;;;;;;5044841;28;19908;-79
2021/09/18 11:55:06;;;;;;;1.75;1.65;;;24.80;99.90;;;;;;5063122;28;20024;-79
2021/09/18 11:57:32;;;;;;;4.97;2.30;;;24.70;99.90;;;;;;5060836;28;20021;-79
2021/09/18 12:00:15;;;;;;;3.53;2.80;;;24.60;99.90;;;;;;5055353;28;20021;-79
2021/09/18 12:02:41;;;;;;;4.45;2.15;;;24.50;99.90;;;;;;5076012;28;20640;-78
2021/09/18 12:05:15;;;;;;;6.68;2.10;;;24.30;99.90;;;;;;5081509;28;20029;-74
2021/09/18 12:07:45;;;;;;;2.80;1.90;;;24.20;99.90;;;;;;5072336;28;20561;-74
2021/09/18 12:10:13;;;;;;;9.82;2.60;;;24.20;99.90;;;;;;5071295;28;20028;-73
2021/09/18 12:12:39;;;;;;;2.17;2.08;;;24.00;99.90;;;;;;5056480;28;20025;-73
2021/09/18 12:15:06;;;;;;;6.13;2.08;;;23.90;99.90;;;;;;5066002;28;20356;-74
2021/09/18 12:17:37;;;;;;;2.08;1.92;;;23.70;99.90;;;;;;5053936;28;20139;-73
2021/09/18 12:20:11;;;;;;;3.00;2.70;;;23.50;99.90;;;;;;5053927;28;20414;-74
2021/09/18 12:22:38;;;;;;;9.13;2.92;;;23.40;99.90;;;;;;5068638;28;20059;-73
2021/09/18 12:25:04;;;;;;;4.32;2.58;;;23.40;99.90;;;;;;5051750;28;20029;-73
2021/09/18 12:27:33;;;;;;;4.22;2.60;;;23.40;99.90;;;;;;5051243;28;20124;-73
2021/09/18 12:30:01;;;;;;;3.20;2.22;;;23.20;99.90;;;;;;5050694;28;20531;-74
2021/09/18 12:32:28;;;;;;;4.85;2.47;;;23.20;99.90;;;;;;5054518;28;20150;-73
2021/09/18 12:35:12;;;;;;;5.00;2.70;;;23.10;99.90;;;;;;5056030;28;20032;-73
2021/09/18 12:37:40;;;;;;;2.35;2.15;;;23.00;99.90;;;;;;5056196;28;20028;-73
2021/09/18 12:40:09;;;;;;;4.30;2.33;;;22.90;99.90;;;;;;5066268;28;20056;-73
2021/09/18 12:42:35;;;;;;;4.32;1.88;;;23.00;99.90;;;;;;5068766;28;20111;-73
2021/09/18 12:45:19;;;;;;;3.75;2.10;;;23.00;99.90;;;;;;5066357;28;20041;-73
2021/09/18 12:47:45;;;;;;;4.15;2.33;;;23.10;99.90;;;;;;5055640;28;20082;-73
2021/09/18 12:50:18;;;;;;;2.53;2.30;;;23.10;99.90;;;;;;5056033;28;20029;-73
2021/09/18 12:52:47;;;;;;;4.15;2.55;;;23.10;99.90;;;;;;5074307;28;20033;-73
2021/09/18 12:55:13;;;;;;;6.07;2.47;;;23.20;99.90;;;;;;5075439;28;20467;-73
2021/09/18 12:57:39;;;;;;;2.35;2.15;;;23.10;99.90;;;;;;5075295;28;20021;-73
2021/09/18 13:00:07;;;;;;;7.65;2.30;;;23.10;99.90;;;;;;5093907;28;20016;-78
2021/09/18 13:02:33;;;;;;;3.08;2.38;;;23.10;99.90;;;;;;5081834;28;20033;-79
2021/09/18 13:05:02;;;;;;;2.97;2.15;;;23.20;99.90;;;;;;5090275;28;20035;-79
2021/09/18 13:07:29;;;;;;;8.40;2.05;;;23.20;99.90;;;;;;5070126;28;20025;-78
2021/09/18 13:09:59;;;;;;;2.53;1.95;;;23.30;99.90;;;;;;5065405;28;20051;-79
2021/09/18 13:12:25;;;;;;;1.92;1.80;;;23.30;99.90;;;;;;5065923;28;20035;-78
2021/09/18 13:14:58;;;;;;;3.08;2.13;;;23.30;99.90;;;;;;5072593;28;20039;-78
2021/09/18 13:17:28;;;;;;;4.13;2.28;;;23.30;99.90;;;;;;5079722;28;20073;-78
2021/09/18 13:19:57;;;;;;;4.03;2.40;;;23.40;99.90;;;;;;5079952;28;20035;-79
2021/09/18 13:22:34;;;;;;;3.20;1.58;;;23.50;99.90;;;;;;5034239;28;20033;-78
2021/09/18 13:25:01;;;;;;;4.85;1.80;;;23.40;99.90;;;;;;5074185;28;20461;-78
2021/09/18 13:27:29;;;;;;;1.80;1.70;;;23.50;99.90;;;;;;5090112;28;20028;-78
2021/09/18 13:29:57;;;;;;;2.25;2.05;;;23.50;99.90;;;;;;5079726;28;20063;-78
2021/09/18 13:32:23;;;;;;;1.80;1.67;;;23.40;99.90;;;;;;5074269;28;20253;-78
2021/09/18 13:34:49;;;;;;;3.22;1.63;;;23.50;99.90;;;;;;5091595;28;20020;-78
2021/09/18 13:37:16;;;;;;;3.78;2.13;;;23.70;99.90;;;;;;5088100;28;20020;-78
2021/09/18 13:39:42;;;;;;;3.15;2.33;;;23.60;99.90;;;;;;5078722;28;20364;-78
2021/09/18 13:42:12;;;;;;;3.13;2.22;;;23.70;99.90;;;;;;5074413;28;20025;-78
2021/09/18 13:44:38;;;;;;;1.83;1.63;;;23.60;99.90;;;;;;5074330;28;20504;-78
2021/09/18 13:47:05;;;;;;;4.13;1.60;;;23.60;99.90;;;;;;5065927;28;20437;-78
2021/09/18 13:49:30;;;;;;;6.22;1.85;;;23.70;99.90;;;;;;5082001;28;20051;-78
2021/09/18 13:52:01;;;;;;;4.05;2.55;;;23.80;99.90;;;;;;5068739;28;20047;-78
2021/09/18 13:54:27;;;;;;;3.25;1.70;;;23.90;99.90;;;;;;5079500;28;20032;-78
2021/09/18 13:56:54;;;;;;;9.32;2.45;;;23.90;99.90;;;;;;5098136;28;20020;-78
2021/09/18 13:59:19;;;;;;;4.85;2.60;;;23.70;99.90;;;;;;5101457;28;20024;-78
2021/09/18 14:01:45;;;;;;;7.65;2.70;;;23.60;99.90;;;;;;5088198;28;20035;-78
2021/09/18 14:04:11;;;;;;;5.78;2.30;;;23.60;99.90;;;;;;5085652;28;20031;-78
2021/09/18 14:06:37;;;;;;;6.50;2.17;;;23.60;99.90;;;;;;5073247;28;20039;-81
2021/09/18 14:09:07;;;;;;;1.95;1.75;;;23.60;99.90;;;;;;5098946;28;20062;-80
2021/09/18 14:11:38;;;;;;;2.15;1.33;;;23.70;99.90;;;;;;5083514;28;20059;-78
2021/09/18 14:14:08;;;;;;;4.30;1.90;;;23.80;99.90;;;;;;5090558;28;20020;-79
2021/09/18 14:16:38;;;;;;;2.42;1.95;;;24.00;99.90;;;;;;5102094;28;20063;-79
2021/09/18 14:19:05;;;;;;;3.67;1.52;;;24.00;99.90;;;;;;5103998;28;20020;-79